Time;durP1;ratioP1;P1;durP2;ratioP2;P2;SDS_P1;SDS_P2;PMS_P1;PMS_P2;Temp;Humidity;BMP_temperature;BMP_pressure;BME280_temperature;BME280_humidity;BME280_pressure;Samples;Min_cycle;Max_cycle;Signal;HPM_P1;HPM_P2
2021/07/18 00:02:24;;;;;;;6.73;3.40;;;17.50;1.00;;;;;;5032042;28;20206;-64
2021/07/18 00:04:52;;;;;;;6.30;3.50;;;17.50;1.00;;;;;;5031666;28;20206;-64
2021/07/18 00:07:20;;;;;;;9.43;4.00;;;17.40;1.00;;;;;;5032151;28;20233;-64
2021/07/18 00:09:47;;;;;;;7.20;3.93;;;17.40;6.60;;;;;;5031801;28;20283;-64
2021/07/18 00:12:13;;;;;;;8.50;3.80;;;17.40;99.90;;;;;;5031878;28;20210;-64
2021/07/18 00:14:40;;;;;;;6.73;3.80;;;17.30;99.90;;;;;;5031677;28;20590;-64
2021/07/18 00:17:07;;;;;;;6.87;3.80;;;17.30;99.90;;;;;;5031813;28;20226;-64
2021/07/18 00:19:34;;;;;;;7.57;4.00;;;17.30;99.90;;;;;;5031500;28;20210;-64
2021/07/18 00:22:01;;;;;;;9.90;3.93;;;17.30;99.90;;;;;;5031861;28;20206;-64
2021/07/18 00:24:29;;;;;;;5.00;3.73;;;17.30;99.90;;;;;;5031754;28;20202;-64
2021/07/18 00:26:55;;;;;;;7.47;3.90;;;17.20;1.00;;;;;;5031769;28;20206;-64
2021/07/18 00:29:22;;;;;;;8.23;3.87;;;17.20;1.00;;;;;;5031506;28;20212;-64
2021/07/18 00:31:49;;;;;;;6.17;4.30;;;17.10;99.90;;;;;;5031809;28;20213;-64
2021/07/18 00:34:15;;;;;;;5.33;4.10;;;17.10;99.90;;;;;;5031393;28;20698;-64
2021/07/18 00:36:42;;;;;;;5.63;4.10;;;17.10;1.00;;;;;;5031725;28;20210;-64
2021/07/18 00:39:09;;;;;;;7.97;4.40;;;17.00;85.10;;;;;;5032029;28;20241;-64
2021/07/18 00:41:37;;;;;;;5.47;4.40;;;17.00;99.90;;;;;;5031577;28;20206;-64
2021/07/18 00:44:06;;;;;;;6.17;3.90;;;17.00;99.90;;;;;;5031621;28;20655;-64
2021/07/18 00:46:33;;;;;;;5.93;4.53;;;17.00;1.00;;;;;;5031642;28;20202;-63
2021/07/18 00:49:00;;;;;;;4.90;4.17;;;17.00;1.00;;;;;;5031801;28;20372;-64
2021/07/18 00:51:26;;;;;;;10.63;4.80;;;16.90;1.00;;;;;;5031697;28;20276;-63
2021/07/18 00:53:53;;;;;;;10.80;5.10;;;16.90;1.00;;;;;;5031402;28;20728;-62
2021/07/18 00:56:20;;;;;;;7.87;5.00;;;16.80;99.90;;;;;;5031460;28;20210;-63
2021/07/18 00:58:53;;;;;;;6.67;4.90;;;16.80;99.90;;;;;;5031499;28;20226;-63
2021/07/18 01:01:20;;;;;;;8.13;5.07;;;16.80;99.90;;;;;;5031548;28;20736;-64
2021/07/18 01:03:47;;;;;;;6.73;4.33;;;16.80;99.90;;;;;;5034258;28;20266;-63
2021/07/18 01:06:14;;;;;;;9.10;4.50;;;16.70;99.90;;;;;;5035422;28;20206;-64
2021/07/18 01:08:40;;;;;;;8.63;4.63;;;16.80;99.90;;;;;;5035046;28;20644;-64
2021/07/18 01:11:07;;;;;;;7.40;5.17;;;16.80;99.90;;;;;;5035064;28;20264;-64
2021/07/18 01:13:34;;;;;;;7.13;4.37;;;16.80;99.90;;;;;;5034804;28;20233;-64
2021/07/18 01:16:01;;;;;;;8.20;4.90;;;16.80;99.90;;;;;;5035284;28;20673;-64
2021/07/18 01:18:28;;;;;;;7.60;4.97;;;16.70;1.00;;;;;;5034620;28;20226;-64
2021/07/18 01:20:55;;;;;;;7.40;4.87;;;16.70;1.00;;;;;;5034890;28;20210;-64
2021/07/18 01:23:23;;;;;;;8.33;5.00;;;16.70;1.00;;;;;;5034784;28;20209;-64
2021/07/18 01:25:52;;;;;;;10.10;5.77;;;16.60;99.90;;;;;;5034755;28;20626;-64
2021/07/18 01:28:20;;;;;;;8.27;5.40;;;16.60;99.90;;;;;;5034529;28;20245;-64
2021/07/18 01:30:48;;;;;;;11.17;5.33;;;16.60;99.90;;;;;;5034735;28;20264;-64
2021/07/18 01:33:14;;;;;;;8.27;5.80;;;16.60;99.90;;;;;;5034894;28;20210;-64
2021/07/18 01:35:41;;;;;;;10.20;5.37;;;16.50;1.00;;;;;;5034390;28;20272;-64
2021/07/18 01:38:09;;;;;;;9.00;5.90;;;16.60;1.00;;;;;;5034560;28;20304;-64
2021/07/18 01:40:37;;;;;;;6.83;5.53;;;16.50;1.00;;;;;;5034398;28;20268;-64
2021/07/18 01:43:05;;;;;;;8.17;5.63;;;16.50;1.00;;;;;;5034820;28;20271;-64
2021/07/18 01:45:32;;;;;;;11.33;5.47;;;16.50;1.00;;;;;;5034422;28;20224;-64
2021/07/18 01:47:58;;;;;;;9.00;5.50;;;16.50;1.00;;;;;;5034612;28;20569;-64
2021/07/18 01:50:26;;;;;;;7.63;5.73;;;16.50;26.60;;;;;;5034333;28;20299;-64
2021/07/18 01:52:53;;;;;;;7.47;6.13;;;16.50;40.90;;;;;;5034447;28;20280;-62
2021/07/18 01:55:20;;;;;;;14.97;6.40;;;16.40;99.90;;;;;;5033871;28;20663;-63
2021/07/18 01:57:48;;;;;;;10.63;5.77;;;16.40;99.90;;;;;;5034500;28;20232;-64
2021/07/18 02:00:16;;;;;;;9.30;5.70;;;16.40;99.90;;;;;;5034376;28;20210;-64
2021/07/18 02:02:43;;;;;;;9.37;5.77;;;16.40;99.90;;;;;;5034139;28;20203;-64
2021/07/18 02:05:11;;;;;;;9.70;5.97;;;16.40;99.90;;;;;;5034086;28;20256;-64
2021/07/18 02:07:38;;;;;;;8.83;5.50;;;16.30;1.00;;;;;;5033955;28;20230;-64
2021/07/18 02:10:05;;;;;;;10.63;5.80;;;16.30;99.90;;;;;;5033914;28;20663;-64
2021/07/18 02:12:32;;;;;;;11.80;5.47;;;16.30;99.90;;;;;;5034089;28;20224;-64
2021/07/18 02:15:00;;;;;;;8.97;6.20;;;16.30;99.90;;;;;;5033476;28;20223;-64
2021/07/18 02:17:27;;;;;;;11.40;5.60;;;16.20;99.90;;;;;;5033899;28;20308;-64
2021/07/18 02:19:54;;;;;;;9.57;6.27;;;16.20;99.90;;;;;;5034063;28;20211;-64
2021/07/18 02:22:26;;;;;;;10.43;6.40;;;16.20;99.90;;;;;;5033684;28;20233;-64
2021/07/18 02:24:53;;;;;;;16.20;6.80;;;16.20;1.00;;;;;;5033677;28;20668;-64
2021/07/18 02:27:19;;;;;;;9.20;6.60;;;16.10;1.00;;;;;;5033691;28;20226;-64
2021/07/18 02:29:46;;;;;;;10.70;6.70;;;16.10;99.90;;;;;;5033861;28;20268;-64
2021/07/18 02:32:14;;;;;;;10.10;6.90;;;16.10;99.90;;;;;;5033748;28;20206;-64
2021/07/18 02:34:40;;;;;;;8.33;6.07;;;16.10;1.00;;;;;;5033276;28;20211;-64
2021/07/18 02:37:07;;;;;;;10.10;6.17;;;16.00;1.00;;;;;;5033185;28;20242;-64
2021/07/18 02:39:34;;;;;;;11.93;6.40;;;16.00;1.00;;;;;;5033623;28;20631;-64
2021/07/18 02:42:00;;;;;;;7.73;5.83;;;16.00;99.90;;;;;;5033595;28;20214;-64
2021/07/18 02:44:27;;;;;;;8.33;5.80;;;15.90;99.90;;;;;;5033274;28;20214;-64
2021/07/18 02:46:53;;;;;;;9.30;5.70;;;15.90;99.90;;;;;;5033473;28;20237;-64
2021/07/18 02:49:21;;;;;;;9.47;5.50;;;15.80;99.90;;;;;;5033292;28;20206;-64
2021/07/18 02:51:48;;;;;;;9.63;5.80;;;15.90;99.90;;;;;;5033263;28;20214;-63
2021/07/18 02:54:15;;;;;;;11.70;7.00;;;15.80;1.00;;;;;;5033106;28;20268;-64
2021/07/18 02:56:41;;;;;;;10.33;7.20;;;15.80;1.00;;;;;;5033220;28;20232;-64
2021/07/18 02:59:08;;;;;;;12.97;6.63;;;15.80;99.90;;;;;;5033243;28;20304;-64
2021/07/18 03:01:34;;;;;;;12.03;6.27;;;15.80;99.90;;;;;;5033083;28;20244;-64
2021/07/18 03:04:01;;;;;;;9.70;6.03;;;15.70;99.90;;;;;;5032814;28;20554;-65
2021/07/18 03:06:29;;;;;;;9.23;6.40;;;15.70;99.90;;;;;;5033097;28;20203;-64
2021/07/18 03:08:55;;;;;;;10.67;5.97;;;15.70;99.90;;;;;;5033034;28;20296;-64
2021/07/18 03:11:22;;;;;;;12.63;6.07;;;15.60;99.90;;;;;;5032953;28;20210;-63
2021/07/18 03:13:49;;;;;;;8.97;6.30;;;15.60;99.90;;;;;;5032868;28;20206;-63
2021/07/18 03:16:15;;;;;;;9.57;6.10;;;15.50;99.90;;;;;;5032770;28;20288;-63
2021/07/18 03:18:42;;;;;;;8.67;5.87;;;15.50;99.90;;;;;;5032489;28;20226;-63
2021/07/18 03:21:08;;;;;;;9.20;6.10;;;15.40;99.90;;;;;;5032655;28;20252;-64
2021/07/18 03:23:36;;;;;;;11.43;6.00;;;15.40;99.90;;;;;;5032632;28;20210;-64
2021/07/18 03:26:03;;;;;;;10.40;6.60;;;15.40;99.90;;;;;;5031813;28;20249;-63
2021/07/18 03:28:30;;;;;;;8.87;6.10;;;15.30;1.00;;;;;;5032589;28;20226;-64
2021/07/18 03:30:57;;;;;;;8.97;5.97;;;15.30;1.00;;;;;;5032617;28;20233;-64
2021/07/18 03:33:24;;;;;;;12.10;6.90;;;15.30;1.00;;;;;;5032252;28;20301;-64
2021/07/18 03:35:52;;;;;;;8.57;6.23;;;15.30;67.60;;;;;;5032529;28;20226;-64
2021/07/18 03:38:19;;;;;;;9.40;5.57;;;15.20;99.90;;;;;;5032051;28;20738;-64
2021/07/18 03:40:47;;;;;;;10.67;6.43;;;15.20;88.80;;;;;;5032502;28;20312;-64
2021/07/18 03:43:14;;;;;;;8.93;6.10;;;15.20;99.90;;;;;;5032295;28;20646;-64
2021/07/18 03:45:40;;;;;;;9.03;6.27;;;15.20;99.90;;;;;;5032122;28;20202;-64
2021/07/18 03:48:07;;;;;;;13.00;6.40;;;15.10;99.90;;;;;;5032338;28;20284;-64
2021/07/18 03:50:34;;;;;;;12.80;6.90;;;15.10;99.90;;;;;;5032352;28;20210;-64
2021/07/18 03:53:00;;;;;;;12.07;7.00;;;15.10;99.90;;;;;;5032145;28;20210;-64
2021/07/18 03:55:27;;;;;;;12.13;7.27;;;15.10;1.00;;;;;;5032118;28;20291;-64
2021/07/18 03:57:55;;;;;;;12.53;6.50;;;15.10;1.00;;;;;;5032058;28;20727;-62
2021/07/18 04:00:21;;;;;;;11.27;7.80;;;15.10;1.00;;;;;;5032020;28;20210;-63
2021/07/18 04:02:48;;;;;;;10.77;7.27;;;15.10;80.00;;;;;;5032106;28;20663;-63
2021/07/18 04:05:15;;;;;;;14.50;7.30;;;15.10;99.90;;;;;;5031812;28;20248;-64
2021/07/18 04:07:41;;;;;;;11.07;7.27;;;15.10;99.90;;;;;;5032088;28;20230;-64
2021/07/18 04:10:09;;;;;;;13.13;7.90;;;15.10;99.90;;;;;;5032115;28;20260;-63
2021/07/18 04:12:35;;;;;;;11.80;8.40;;;15.20;99.90;;;;;;5032024;28;20252;-63
2021/07/18 04:15:04;;;;;;;13.43;9.17;;;15.20;99.90;;;;;;5031515;28;20206;-63
2021/07/18 04:17:30;;;;;;;14.87;9.53;;;15.30;99.90;;;;;;5032198;28;20230;-63
2021/07/18 04:19:57;;;;;;;13.97;9.10;;;15.30;1.00;;;;;;5031923;28;20210;-64
2021/07/18 04:22:24;;;;;;;15.20;9.53;;;15.30;1.00;;;;;;5031987;28;20214;-64
2021/07/18 04:24:51;;;;;;;15.37;8.50;;;15.40;1.00;;;;;;5031788;28;20556;-64
2021/07/18 04:27:17;;;;;;;16.77;9.73;;;15.40;1.00;;;;;;5031686;28;20357;-64
2021/07/18 04:29:44;;;;;;;17.80;9.90;;;15.40;1.00;;;;;;5032003;28;20627;-64
2021/07/18 04:32:12;;;;;;;15.33;9.47;;;15.50;23.60;;;;;;5031656;28;20236;-63
2021/07/18 04:34:42;;;;;;;14.87;9.60;;;15.50;89.90;;;;;;5031733;28;20206;-63
2021/07/18 04:37:09;;;;;;;15.27;8.93;;;15.50;99.90;;;;;;5033214;28;20230;-63
2021/07/18 04:39:36;;;;;;;14.10;9.07;;;15.60;99.90;;;;;;5035887;28;20584;-63
2021/07/18 04:42:03;;;;;;;19.83;9.57;;;15.60;99.90;;;;;;5035412;28;20206;-64
2021/07/18 04:44:30;;;;;;;16.33;9.60;;;15.70;99.90;;;;;;5035837;28;20206;-64
2021/07/18 04:46:57;;;;;;;18.13;9.83;;;15.70;99.90;;;;;;5035580;28;20647;-64
2021/07/18 04:49:25;;;;;;;26.30;12.97;;;15.80;99.90;;;;;;5035673;28;20324;-63
2021/07/18 04:51:52;;;;;;;19.20;13.37;;;15.80;99.90;;;;;;5035407;28;20252;-64
2021/07/18 04:54:19;;;;;;;19.43;12.60;;;15.90;1.00;;;;;;5035291;28;20217;-64
2021/07/18 04:56:46;;;;;;;18.17;12.83;;;16.00;1.00;;;;;;5035485;28;20234;-64
2021/07/18 04:59:13;;;;;;;22.93;12.87;;;16.00;1.00;;;;;;5035522;28;20210;-64
2021/07/18 05:01:39;;;;;;;16.17;11.83;;;16.10;99.90;;;;;;5035339;28;20671;-64
2021/07/18 05:04:06;;;;;;;18.77;12.10;;;16.10;99.90;;;;;;5035102;28;20264;-64
2021/07/18 05:06:34;;;;;;;18.87;11.87;;;16.20;1.00;;;;;;5035312;28;20204;-64
2021/07/18 05:09:01;;;;;;;15.57;10.93;;;16.20;1.00;;;;;;5034983;28;20639;-64
2021/07/18 05:11:27;;;;;;;16.53;10.60;;;16.20;1.00;;;;;;5035313;28;20260;-63
2021/07/18 05:13:54;;;;;;;13.70;10.27;;;16.30;1.00;;;;;;5035176;28;20264;-64
2021/07/18 05:16:21;;;;;;;15.33;9.90;;;16.30;1.00;;;;;;5035131;28;20226;-64
2021/07/18 05:18:48;;;;;;;14.93;9.60;;;16.40;99.90;;;;;;5034941;28;20706;-63
2021/07/18 05:21:15;;;;;;;16.37;9.40;;;16.50;99.90;;;;;;5034908;28;20206;-64
2021/07/18 05:23:45;;;;;;;19.00;9.83;;;16.50;99.90;;;;;;5034871;28;20280;-63
2021/07/18 05:26:11;;;;;;;15.50;10.03;;;16.50;1.00;;;;;;5034965;28;20203;-64
2021/07/18 05:28:38;;;;;;;16.63;9.87;;;16.60;1.00;;;;;;5035026;28;20226;-64
2021/07/18 05:31:04;;;;;;;14.70;10.37;;;16.60;1.00;;;;;;5034820;28;20764;-64
2021/07/18 05:33:31;;;;;;;16.47;9.93;;;16.60;1.00;;;;;;5034712;28;20202;-64
2021/07/18 05:35:58;;;;;;;16.37;10.10;;;16.60;99.90;;;;;;5034385;28;20226;-63
2021/07/18 05:38:24;;;;;;;12.67;9.07;;;16.60;99.90;;;;;;5034159;28;20717;-63
2021/07/18 05:40:52;;;;;;;13.53;8.47;;;16.70;99.90;;;;;;5034444;28;20210;-64
2021/07/18 05:43:19;;;;;;;10.60;7.70;;;16.80;1.00;;;;;;5034638;28;20202;-64
2021/07/18 05:45:46;;;;;;;12.80;8.57;;;16.80;1.00;;;;;;5034412;28;20279;-64
2021/07/18 05:48:12;;;;;;;11.00;7.20;;;16.90;99.90;;;;;;5033698;28;20226;-63
2021/07/18 05:50:39;;;;;;;11.87;7.43;;;16.90;1.00;;;;;;5034273;28;20246;-64
2021/07/18 05:53:06;;;;;;;15.77;8.33;;;16.90;99.90;;;;;;5034480;28;20613;-64
2021/07/18 05:55:32;;;;;;;11.03;7.53;;;16.80;87.60;;;;;;5034230;28;20203;-64
2021/07/18 05:58:00;;;;;;;15.67;7.67;;;16.80;99.90;;;;;;5034131;28;20234;-64
2021/07/18 06:00:27;;;;;;;10.53;7.30;;;16.90;99.90;;;;;;5034408;28;20752;-63
2021/07/18 06:02:53;;;;;;;12.47;7.10;;;17.00;1.00;;;;;;5034210;28;20206;-65
2021/07/18 06:05:20;;;;;;;10.60;6.83;;;17.00;1.00;;;;;;5033909;28;20340;-64
2021/07/18 06:07:47;;;;;;;10.20;7.20;;;17.10;99.90;;;;;;5034064;28;20223;-63
2021/07/18 06:10:14;;;;;;;11.60;6.47;;;17.20;85.20;;;;;;5034060;28;20210;-63
2021/07/18 06:12:40;;;;;;;12.07;6.13;;;17.20;1.00;;;;;;5033821;28;20550;-63
2021/07/18 06:15:09;;;;;;;8.97;6.20;;;17.20;99.90;;;;;;5034034;28;20658;-64
2021/07/18 06:17:37;;;;;;;9.27;5.87;;;17.30;99.90;;;;;;5033838;28;20678;-64
2021/07/18 06:20:06;;;;;;;8.40;5.23;;;17.30;1.00;;;;;;5033682;28;20575;-64
2021/07/18 06:22:33;;;;;;;8.07;5.83;;;17.40;99.90;;;;;;5034090;28;20212;-64
2021/07/18 06:24:59;;;;;;;10.40;5.97;;;17.50;1.00;;;;;;5033736;28;20202;-64
2021/07/18 06:27:26;;;;;;;8.53;5.83;;;17.50;1.00;;;;;;5033841;28;20723;-63
2021/07/18 06:29:52;;;;;;;10.30;5.57;;;17.50;1.00;;;;;;5033767;28;20256;-63
2021/07/18 06:32:21;;;;;;;10.17;5.80;;;17.50;99.90;;;;;;5033621;28;20256;-64
2021/07/18 06:34:48;;;;;;;10.10;5.73;;;17.60;99.90;;;;;;5033683;28;20628;-64
2021/07/18 06:37:15;;;;;;;9.40;5.77;;;17.80;96.20;;;;;;5033349;28;20237;-64
2021/07/18 06:39:42;;;;;;;9.60;5.83;;;17.80;2.00;;;;;;5033439;28;20210;-64
2021/07/18 06:42:09;;;;;;;7.67;5.47;;;17.90;99.90;;;;;;5033516;28;20484;-64
2021/07/18 06:44:35;;;;;;;10.70;5.10;;;18.00;99.90;;;;;;5033300;28;20241;-64
2021/07/18 06:47:02;;;;;;;10.20;4.80;;;18.10;99.90;;;;;;5033184;28;20202;-64
2021/07/18 06:49:30;;;;;;;8.57;4.77;;;18.20;99.90;;;;;;5033468;28;20600;-64
2021/07/18 06:51:57;;;;;;;8.40;4.47;;;18.30;1.00;;;;;;5033143;28;20218;-64
2021/07/18 06:54:24;;;;;;;6.43;4.43;;;18.30;1.00;;;;;;5033231;28;20255;-64
2021/07/18 06:56:50;;;;;;;9.33;4.10;;;18.30;1.00;;;;;;5033032;28;20280;-64
2021/07/18 06:59:17;;;;;;;7.67;3.90;;;18.40;1.00;;;;;;5033139;28;20214;-64
2021/07/18 07:01:44;;;;;;;4.60;3.70;;;18.50;99.90;;;;;;5032666;28;20264;-64
2021/07/18 07:04:10;;;;;;;5.10;3.80;;;18.70;99.90;;;;;;5032900;28;20211;-64
2021/07/18 07:06:38;;;;;;;8.53;4.40;;;18.80;99.90;;;;;;5032751;28;20677;-64
2021/07/18 07:09:05;;;;;;;8.20;4.40;;;18.90;99.90;;;;;;5032942;28;20746;-64
2021/07/18 07:11:32;;;;;;;9.90;4.27;;;18.80;99.90;;;;;;5032793;28;20211;-64
2021/07/18 07:13:58;;;;;;;6.77;4.00;;;18.90;99.90;;;;;;5032744;28;20256;-64
2021/07/18 07:16:25;;;;;;;4.93;3.10;;;19.10;99.90;;;;;;5033203;28;20229;-64
2021/07/18 07:18:52;;;;;;;6.50;3.17;;;19.20;10.10;;;;;;5032720;28;20222;-64
2021/07/18 07:21:18;;;;;;;4.80;3.20;;;19.20;59.70;;;;;;5033290;28;20627;-64
2021/07/18 07:23:46;;;;;;;6.67;3.50;;;19.20;9.80;;;;;;5032474;28;20633;-64
2021/07/18 07:26:13;;;;;;;5.67;3.00;;;19.30;1.00;;;;;;5032564;28;20207;-64
2021/07/18 07:28:40;;;;;;;7.10;3.47;;;19.40;1.00;;;;;;5032263;28;20280;-64
2021/07/18 07:31:06;;;;;;;6.73;3.40;;;19.50;1.00;;;;;;5032864;28;20236;-64
2021/07/18 07:33:33;;;;;;;4.93;3.00;;;19.80;1.00;;;;;;5032497;28;20231;-64
2021/07/18 07:36:00;;;;;;;4.33;2.80;;;19.90;1.00;;;;;;5032517;28;20238;-64
2021/07/18 07:38:27;;;;;;;5.87;3.03;;;20.10;1.00;;;;;;5032216;28;20246;-64
2021/07/18 07:40:55;;;;;;;5.73;3.17;;;20.20;1.00;;;;;;5032251;28;20210;-64
2021/07/18 07:43:21;;;;;;;4.37;2.67;;;20.30;1.00;;;;;;5032156;28;20210;-64
2021/07/18 07:45:48;;;;;;;4.90;2.70;;;20.50;1.00;;;;;;5032269;28;20247;-64
2021/07/18 07:48:14;;;;;;;4.97;2.60;;;20.70;1.00;;;;;;5032289;28;20645;-64
2021/07/18 07:50:41;;;;;;;3.23;2.23;;;20.70;1.00;;;;;;5032177;28;20256;-65
2021/07/18 07:53:08;;;;;;;5.83;2.77;;;20.40;1.00;;;;;;5032158;28;20206;-64
2021/07/18 07:55:35;;;;;;;4.90;2.83;;;20.40;1.00;;;;;;5031786;28;20630;-65
2021/07/18 07:58:05;;;;;;;4.13;2.60;;;20.20;1.00;;;;;;5032151;28;20260;-63
2021/07/18 08:00:32;;;;;;;3.17;2.53;;;20.30;1.00;;;;;;5032288;28;20572;-62
2021/07/18 08:02:59;;;;;;;5.93;2.80;;;20.40;1.00;;;;;;5032052;28;20203;-64
2021/07/18 08:05:25;;;;;;;6.00;3.00;;;20.60;1.00;;;;;;5031787;28;20595;-64
2021/07/18 08:07:52;;;;;;;6.07;2.57;;;20.80;1.00;;;;;;5032245;28;20222;-65
2021/07/18 08:10:20;;;;;;;4.20;2.40;;;21.00;1.00;;;;;;5031897;28;20202;-64
2021/07/18 08:12:48;;;;;;;5.47;2.70;;;21.30;1.00;;;;;;5031687;28;20202;-64
2021/07/18 08:15:17;;;;;;;5.13;2.70;;;21.30;99.90;;;;;;5032042;28;20206;-64
2021/07/18 08:17:45;;;;;;;3.07;2.43;;;21.50;99.90;;;;;;5031895;28;20657;-64
2021/07/18 08:20:15;;;;;;;3.93;2.57;;;21.40;99.90;;;;;;5032095;28;20273;-65
2021/07/18 08:22:44;;;;;;;6.30;2.63;;;21.50;99.90;;;;;;5031892;28;20628;-64
2021/07/18 08:25:13;;;;;;;3.67;2.60;;;21.40;99.90;;;;;;5031977;28;20337;-65
2021/07/18 08:27:39;;;;;;;5.00;2.17;;;21.50;99.90;;;;;;5031592;28;20707;-65
2021/07/18 08:30:08;;;;;;;4.50;2.60;;;21.60;99.90;;;;;;5031961;28;20264;-65
2021/07/18 08:32:36;;;;;;;4.17;2.53;;;21.80;99.90;;;;;;5031765;28;20214;-64
2021/07/18 08:35:04;;;;;;;4.13;2.37;;;22.00;99.90;;;;;;5031616;28;20264;-64
2021/07/18 08:37:31;;;;;;;4.50;2.50;;;22.00;99.90;;;;;;5031323;28;20234;-64
2021/07/18 08:39:57;;;;;;;4.90;2.70;;;22.00;99.90;;;;;;5031951;28;20210;-64
2021/07/18 08:42:25;;;;;;;4.67;2.33;;;22.30;1.00;;;;;;5031757;28;20210;-64
2021/07/18 08:44:53;;;;;;;5.73;2.43;;;22.30;99.90;;;;;;5031563;28;20210;-64
2021/07/18 08:47:20;;;;;;;4.87;2.10;;;22.10;99.90;;;;;;5031678;28;20233;-63
2021/07/18 08:49:48;;;;;;;4.80;2.33;;;21.70;99.90;;;;;;5031554;28;20613;-64
2021/07/18 08:52:15;;;;;;;4.53;2.27;;;21.80;99.90;;;;;;5032155;28;20272;-64
2021/07/18 08:54:45;;;;;;;3.80;2.30;;;22.00;99.90;;;;;;5031759;28;20210;-63
2021/07/18 08:57:12;;;;;;;4.57;2.30;;;22.10;99.90;;;;;;5031712;28;20234;-63
2021/07/18 08:59:39;;;;;;;5.73;2.63;;;22.30;99.90;;;;;;5031638;28;20210;-63
2021/07/18 09:02:06;;;;;;;4.87;2.30;;;22.10;99.90;;;;;;5031557;28;20348;-64
2021/07/18 09:04:33;;;;;;;4.37;2.30;;;22.30;99.90;;;;;;5031085;28;20207;-63
2021/07/18 09:07:06;;;;;;;5.20;2.47;;;22.40;99.90;;;;;;5031804;28;20257;-64
2021/07/18 09:09:33;;;;;;;4.00;2.40;;;22.50;99.90;;;;;;5031342;28;20675;-64
2021/07/18 09:12:03;;;;;;;4.47;2.20;;;22.50;99.90;;;;;;5031422;28;20202;-64
2021/07/18 09:14:32;;;;;;;4.27;2.03;;;22.50;99.90;;;;;;5031500;28;20206;-64
2021/07/18 09:17:00;;;;;;;3.87;2.20;;;22.80;99.90;;;;;;5030983;28;20222;-64
2021/07/18 09:19:29;;;;;;;9.50;2.23;;;23.10;99.90;;;;;;5031748;28;20208;-65
2021/07/18 09:22:21;;;;;;;4.57;2.27;;;23.20;99.90;;;;;;5031441;28;20304;-64
2021/07/18 09:24:50;;;;;;;3.00;1.70;;;23.40;99.90;;;;;;5028977;28;20614;-64
2021/07/18 09:27:20;;;;;;;3.70;2.17;;;23.50;99.90;;;;;;5033855;28;20711;-65
2021/07/18 09:29:49;;;;;;;3.03;2.20;;;23.50;99.90;;;;;;5035031;28;20210;-64
2021/07/18 09:32:17;;;;;;;2.77;1.90;;;23.50;99.90;;;;;;5034832;28;20206;-64
2021/07/18 09:34:46;;;;;;;3.17;1.97;;;23.30;99.90;;;;;;5034726;28;20268;-64
2021/07/18 09:37:20;;;;;;;3.70;2.23;;;23.20;99.90;;;;;;5034523;28;20230;-64
2021/07/18 09:39:55;;;;;;;3.00;2.33;;;23.40;99.90;;;;;;5034592;28;20203;-64
2021/07/18 09:42:31;;;;;;;3.30;2.00;;;23.60;99.90;;;;;;5034756;28;20214;-64
2021/07/18 09:44:58;;;;;;;3.03;1.90;;;23.80;99.90;;;;;;5034558;28;20213;-64
2021/07/18 09:47:25;;;;;;;3.10;2.13;;;23.90;99.90;;;;;;5034431;28;20226;-64
2021/07/18 09:49:52;;;;;;;4.20;2.20;;;23.90;99.90;;;;;;5034493;28;20341;-65
2021/07/18 09:52:23;;;;;;;3.20;2.00;;;23.90;99.90;;;;;;5034501;28;20682;-64
2021/07/18 09:54:51;;;;;;;2.93;2.37;;;23.90;99.90;;;;;;5034374;28;20210;-64
2021/07/18 09:57:32;;;;;;;4.50;2.33;;;23.80;99.90;;;;;;5034363;28;20308;-64
2021/07/18 09:59:58;;;;;;;2.23;2.03;;;23.80;99.90;;;;;;5034270;28;20630;-64
2021/07/18 10:02:26;;;;;;;3.37;2.30;;;23.90;99.90;;;;;;5034300;28;20252;-64
2021/07/18 10:04:53;;;;;;;2.73;2.00;;;24.00;99.90;;;;;;5033690;28;20207;-65
2021/07/18 10:07:23;;;;;;;2.03;1.77;;;24.00;99.90;;;;;;5034284;28;20222;-64
2021/07/18 10:09:51;;;;;;;4.00;2.60;;;23.60;99.90;;;;;;5034153;28;20249;-65
2021/07/18 10:12:19;;;;;;;2.70;2.10;;;23.30;99.90;;;;;;5034091;28;20215;-64
2021/07/18 10:14:46;;;;;;;3.43;2.17;;;23.50;99.90;;;;;;5033918;28;20206;-63
2021/07/18 10:17:12;;;;;;;2.73;1.80;;;23.70;99.90;;;;;;5036327;28;20234;-66
2021/07/18 10:19:39;;;;;;;3.03;2.00;;;23.70;99.90;;;;;;5033430;28;20210;-66
2021/07/18 10:22:08;;;;;;;3.27;2.03;;;23.90;99.90;;;;;;5033858;28;20237;-66
2021/07/18 10:24:36;;;;;;;3.00;1.90;;;24.00;99.90;;;;;;5033319;28;20206;-66
2021/07/18 10:27:04;;;;;;;2.83;2.00;;;24.00;99.90;;;;;;5033217;28;20202;-66
2021/07/18 10:29:33;;;;;;;2.53;2.30;;;24.10;99.90;;;;;;5033507;28;20202;-65
2021/07/18 10:32:04;;;;;;;3.60;2.30;;;24.10;99.90;;;;;;5033071;28;20210;-65
2021/07/18 10:34:35;;;;;;;3.63;2.57;;;24.20;99.90;;;;;;5032945;28;20210;-65
2021/07/18 10:37:02;;;;;;;4.27;2.60;;;24.30;99.90;;;;;;5032864;28;21346;-65
2021/07/18 10:39:30;;;;;;;3.60;2.30;;;24.30;99.90;;;;;;5033680;28;20209;-66
2021/07/18 10:42:00;;;;;;;3.67;2.33;;;24.30;99.90;;;;;;5033113;28;20264;-66
2021/07/18 10:44:38;;;;;;;3.10;2.10;;;24.40;99.90;;;;;;5032935;28;20213;-65
2021/07/18 10:47:05;;;;;;;3.23;2.20;;;24.50;99.90;;;;;;5032944;28;20206;-65
2021/07/18 10:49:58;;;;;;;6.17;2.40;;;24.60;99.90;;;;;;5033225;28;20257;-65
2021/07/18 10:52:30;;;;;;;7.07;3.30;;;24.70;99.90;;;;;;5033287;28;20268;-65
2021/07/18 10:54:57;;;;;;;5.03;2.60;;;24.70;99.90;;;;;;5032754;28;20207;-64
2021/07/18 10:57:27;;;;;;;3.60;2.33;;;24.40;99.90;;;;;;5032678;28;20288;-66
2021/07/18 10:59:55;;;;;;;4.10;2.90;;;24.40;99.90;;;;;;5032709;28;20217;-66
2021/07/18 11:02:32;;;;;;;5.60;2.50;;;24.40;99.90;;;;;;5033012;28;20686;-64
2021/07/18 11:04:59;;;;;;;4.13;2.67;;;24.60;99.90;;;;;;5032735;28;20194;-65
2021/07/18 11:07:35;;;;;;;5.07;2.77;;;24.70;99.90;;;;;;5032320;28;20230;-66
2021/07/18 11:10:18;;;;;;;4.03;2.50;;;24.80;99.90;;;;;;5018819;28;20623;-66
2021/07/18 11:12:48;;;;;;;4.47;2.90;;;24.90;99.90;;;;;;5013361;28;20684;-67
2021/07/18 11:15:32;;;;;;;3.03;2.47;;;24.80;99.90;;;;;;5015536;28;20262;-66
2021/07/18 11:18:06;;;;;;;3.33;2.87;;;24.70;99.90;;;;;;5015854;28;20244;-67
2021/07/18 11:20:56;;;;;;;3.90;2.70;;;24.60;99.90;;;;;;5011699;28;20261;-67
2021/07/18 11:23:35;;;;;;;4.23;2.67;;;24.40;99.90;;;;;;5015551;28;20230;-67
2021/07/18 11:26:10;;;;;;;5.97;2.83;;;24.30;99.90;;;;;;5013734;28;20689;-67
2021/07/18 11:28:52;;;;;;;3.93;3.27;;;24.50;99.90;;;;;;5013641;28;20227;-66
2021/07/18 11:31:45;;;;;;;3.97;3.10;;;24.70;99.90;;;;;;5012624;28;20217;-64
2021/07/18 11:34:19;;;;;;;3.50;2.97;;;24.90;99.90;;;;;;5012818;28;20191;-64
2021/07/18 11:37:07;;;;;;;4.93;2.93;;;25.10;99.90;;;;;;5015685;28;20210;-65
2021/07/18 11:39:35;;;;;;;6.53;2.90;;;25.20;99.90;;;;;;5032257;28;20237;-65
2021/07/18 11:42:08;;;;;;;4.10;2.80;;;24.90;99.90;;;;;;5032135;28;20234;-65
2021/07/18 11:44:39;;;;;;;4.03;3.30;;;25.00;99.90;;;;;;5031883;28;20761;-65
2021/07/18 11:47:08;;;;;;;4.27;3.10;;;25.10;99.90;;;;;;5030913;28;20565;-65
2021/07/18 11:49:41;;;;;;;4.83;3.13;;;25.30;99.90;;;;;;5031951;28;20209;-65
2021/07/18 11:52:10;;;;;;;3.93;2.90;;;25.30;99.90;;;;;;5032014;28;20202;-68
2021/07/18 11:54:37;;;;;;;4.20;2.33;;;25.30;99.90;;;;;;5031630;28;20616;-67
2021/07/18 11:57:09;;;;;;;4.17;2.37;;;25.20;99.90;;;;;;5031520;28;20260;-67
2021/07/18 11:59:38;;;;;;;5.77;2.70;;;24.90;99.90;;;;;;5031474;28;20233;-70
2021/07/18 12:02:05;;;;;;;6.33;2.70;;;25.00;99.90;;;;;;5031843;28;20691;-66
2021/07/18 12:04:32;;;;;;;5.27;2.80;;;25.30;99.90;;;;;;5031622;28;20202;-68
2021/07/18 12:07:02;;;;;;;4.67;2.87;;;25.50;99.90;;;;;;5031500;28;20214;-66
2021/07/18 12:09:30;;;;;;;5.50;3.10;;;25.50;99.90;;;;;;5031689;28;20557;-65
2021/07/18 12:11:58;;;;;;;5.70;2.30;;;25.40;99.90;;;;;;5031668;28;20210;-66
2021/07/18 12:14:27;;;;;;;6.23;3.20;;;25.50;99.90;;;;;;5031940;28;20280;-69
2021/07/18 12:16:58;;;;;;;3.77;2.70;;;25.30;99.90;;;;;;5031090;28;20202;-68
2021/07/18 12:19:26;;;;;;;5.83;2.73;;;25.30;99.90;;;;;;5031229;28;20236;-67
2021/07/18 12:21:54;;;;;;;3.63;1.97;;;25.40;99.90;;;;;;5031972;28;20210;-67
2021/07/18 12:24:27;;;;;;;2.80;2.00;;;25.60;99.90;;;;;;5031396;28;20210;-67
2021/07/18 12:27:03;;;;;;;3.90;2.20;;;25.70;99.90;;;;;;5031383;28;20206;-68
2021/07/18 12:29:32;;;;;;;4.43;2.20;;;25.50;99.90;;;;;;5031613;28;20206;-68
2021/07/18 12:32:00;;;;;;;4.07;2.00;;;25.60;99.90;;;;;;5031769;28;20202;-66
2021/07/18 12:34:28;;;;;;;5.07;2.27;;;25.50;99.90;;;;;;5031325;28;20712;-67
2021/07/18 12:36:57;;;;;;;4.23;2.33;;;25.70;99.90;;;;;;5030977;28;20248;-69
2021/07/18 12:39:27;;;;;;;2.90;1.90;;;25.50;99.90;;;;;;5031444;28;20226;-67
2021/07/18 12:41:54;;;;;;;3.20;1.80;;;25.70;99.90;;;;;;5031866;28;20257;-69
2021/07/18 12:44:22;;;;;;;4.43;1.90;;;25.80;99.90;;;;;;5031675;28;20202;-68
2021/07/18 12:46:49;;;;;;;7.97;2.37;;;26.00;99.90;;;;;;5031150;28;20264;-65
2021/07/18 12:49:17;;;;;;;2.93;2.03;;;25.80;99.90;;;;;;5031529;28;20198;-65
2021/07/18 12:51:44;;;;;;;4.53;2.17;;;25.80;99.90;;;;;;5031397;28;20345;-65